sensor_id;sensor_type;location;lat;lon;timestamp;P1;durP1;ratioP1;P2;durP2;ratioP2
77111;SDS011;66064;50.226;14.344;2024-01-06T00:00:15;80.65;;;57.08;;
77111;SDS011;66064;50.226;14.344;2024-01-06T00:03:02;95.72;;;57.00;;
77111;SDS011;66064;50.226;14.344;2024-01-06T00:05:28;92.40;;;60.15;;
77111;SDS011;66064;50.226;14.344;2024-01-06T00:07:54;82.78;;;58.40;;
77111;SDS011;66064;50.226;14.344;2024-01-06T00:10:20;81.53;;;51.92;;
77111;SDS011;66064;50.226;14.344;2024-01-06T00:12:46;83.32;;;57.78;;
77111;SDS011;66064;50.226;14.344;2024-01-06T00:15:14;76.72;;;50.50;;
77111;SDS011;66064;50.226;14.344;2024-01-06T00:17:40;74.68;;;49.80;;
77111;SDS011;66064;50.226;14.344;2024-01-06T00:20:07;77.75;;;48.03;;
77111;SDS011;66064;50.226;14.344;2024-01-06T00:22:33;72.22;;;50.30;;
77111;SDS011;66064;50.226;14.344;2024-01-06T00:25:00;71.68;;;40.35;;
77111;SDS011;66064;50.226;14.344;2024-01-06T00:27:25;70.47;;;43.70;;
77111;SDS011;66064;50.226;14.344;2024-01-06T00:29:52;63.85;;;40.13;;
77111;SDS011;66064;50.226;14.344;2024-01-06T00:32:18;73.60;;;51.33;;
77111;SDS011;66064;50.226;14.344;2024-01-06T00:34:44;69.75;;;46.42;;
77111;SDS011;66064;50.226;14.344;2024-01-06T00:37:10;64.75;;;41.95;;
77111;SDS011;66064;50.226;14.344;2024-01-06T00:39:37;73.13;;;41.78;;
77111;SDS011;66064;50.226;14.344;2024-01-06T00:42:03;65.28;;;42.67;;
77111;SDS011;66064;50.226;14.344;2024-01-06T00:44:30;74.57;;;40.17;;
77111;SDS011;66064;50.226;14.344;2024-01-06T00:46:56;77.35;;;51.58;;
77111;SDS011;66064;50.226;14.344;2024-01-06T00:49:22;72.93;;;50.20;;
77111;SDS011;66064;50.226;14.344;2024-01-06T00:51:49;81.50;;;49.10;;
77111;SDS011;66064;50.226;14.344;2024-01-06T00:54:16;78.35;;;53.30;;
77111;SDS011;66064;50.226;14.344;2024-01-06T00:56:42;74.70;;;51.13;;
77111;SDS011;66064;50.226;14.344;2024-01-06T00:59:09;68.40;;;47.35;;
77111;SDS011;66064;50.226;14.344;2024-01-06T01:01:34;75.75;;;50.60;;
77111;SDS011;66064;50.226;14.344;2024-01-06T01:04:01;78.60;;;51.72;;
77111;SDS011;66064;50.226;14.344;2024-01-06T01:06:27;75.82;;;49.30;;
77111;SDS011;66064;50.226;14.344;2024-01-06T01:08:53;72.07;;;52.78;;
77111;SDS011;66064;50.226;14.344;2024-01-06T01:11:19;73.47;;;55.05;;
77111;SDS011;66064;50.226;14.344;2024-01-06T01:13:46;73.07;;;49.22;;
77111;SDS011;66064;50.226;14.344;2024-01-06T01:16:12;77.50;;;51.33;;
77111;SDS011;66064;50.226;14.344;2024-01-06T01:18:38;73.60;;;49.83;;
77111;SDS011;66064;50.226;14.344;2024-01-06T01:21:04;72.35;;;50.53;;
77111;SDS011;66064;50.226;14.344;2024-01-06T01:23:30;69.80;;;48.20;;
77111;SDS011;66064;50.226;14.344;2024-01-06T01:25:56;74.45;;;47.50;;
77111;SDS011;66064;50.226;14.344;2024-01-06T01:28:24;71.22;;;49.92;;
77111;SDS011;66064;50.226;14.344;2024-01-06T01:30:50;77.53;;;52.63;;
77111;SDS011;66064;50.226;14.344;2024-01-06T01:33:16;80.63;;;49.67;;
77111;SDS011;66064;50.226;14.344;2024-01-06T01:35:42;75.20;;;54.85;;
77111;SDS011;66064;50.226;14.344;2024-01-06T01:38:08;79.85;;;52.85;;
77111;SDS011;66064;50.226;14.344;2024-01-06T01:40:34;70.85;;;51.25;;
77111;SDS011;66064;50.226;14.344;2024-01-06T01:43:02;81.43;;;49.00;;
77111;SDS011;66064;50.226;14.344;2024-01-06T01:45:27;79.03;;;56.20;;
77111;SDS011;66064;50.226;14.344;2024-01-06T01:47:53;78.10;;;54.88;;
77111;SDS011;66064;50.226;14.344;2024-01-06T01:50:20;88.82;;;53.60;;
77111;SDS011;66064;50.226;14.344;2024-01-06T01:52:48;76.28;;;51.75;;
77111;SDS011;66064;50.226;14.344;2024-01-06T01:55:14;81.93;;;53.65;;
77111;SDS011;66064;50.226;14.344;2024-01-06T01:57:40;74.07;;;53.63;;
77111;SDS011;66064;50.226;14.344;2024-01-06T02:00:07;76.05;;;49.05;;
77111;SDS011;66064;50.226;14.344;2024-01-06T02:02:33;80.70;;;48.75;;
77111;SDS011;66064;50.226;14.344;2024-01-06T02:05:00;73.70;;;48.30;;
77111;SDS011;66064;50.226;14.344;2024-01-06T02:07:26;82.95;;;53.95;;
77111;SDS011;66064;50.226;14.344;2024-01-06T02:09:53;78.82;;;54.83;;
77111;SDS011;66064;50.226;14.344;2024-01-06T02:12:19;98.85;;;61.47;;
77111;SDS011;66064;50.226;14.344;2024-01-06T02:14:45;90.55;;;58.15;;
77111;SDS011;66064;50.226;14.344;2024-01-06T02:17:11;89.85;;;54.72;;
77111;SDS011;66064;50.226;14.344;2024-01-06T02:19:37;92.30;;;55.95;;
77111;SDS011;66064;50.226;14.344;2024-01-06T02:22:04;89.80;;;54.53;;
77111;SDS011;66064;50.226;14.344;2024-01-06T02:24:29;94.65;;;50.40;;
77111;SDS011;66064;50.226;14.344;2024-01-06T02:26:57;83.97;;;51.75;;
77111;SDS011;66064;50.226;14.344;2024-01-06T02:29:22;81.40;;;49.58;;
77111;SDS011;66064;50.226;14.344;2024-01-06T02:31:49;89.72;;;52.42;;
77111;SDS011;66064;50.226;14.344;2024-01-06T02:34:15;96.20;;;46.47;;
77111;SDS011;66064;50.226;14.344;2024-01-06T02:36:41;89.75;;;55.17;;
77111;SDS011;66064;50.226;14.344;2024-01-06T02:39:07;96.20;;;56.42;;
77111;SDS011;66064;50.226;14.344;2024-01-06T02:41:33;81.50;;;50.63;;
77111;SDS011;66064;50.226;14.344;2024-01-06T02:43:59;100.50;;;58.78;;
77111;SDS011;66064;50.226;14.344;2024-01-06T02:46:29;88.95;;;50.50;;
77111;SDS011;66064;50.226;14.344;2024-01-06T02:48:55;89.68;;;52.22;;
77111;SDS011;66064;50.226;14.344;2024-01-06T02:51:21;82.55;;;52.45;;
77111;SDS011;66064;50.226;14.344;2024-01-06T02:53:47;99.10;;;48.13;;
77111;SDS011;66064;50.226;14.344;2024-01-06T02:56:14;84.13;;;52.40;;
77111;SDS011;66064;50.226;14.344;2024-01-06T02:58:39;77.90;;;47.30;;
77111;SDS011;66064;50.226;14.344;2024-01-06T03:01:07;75.70;;;51.13;;
77111;SDS011;66064;50.226;14.344;2024-01-06T03:03:32;76.65;;;43.92;;
77111;SDS011;66064;50.226;14.344;2024-01-06T03:05:59;85.47;;;44.95;;
77111;SDS011;66064;50.226;14.344;2024-01-06T03:08:25;83.95;;;48.72;;
77111;SDS011;66064;50.226;14.344;2024-01-06T03:10:52;85.65;;;52.78;;
77111;SDS011;66064;50.226;14.344;2024-01-06T03:13:18;82.00;;;49.97;;
77111;SDS011;66064;50.226;14.344;2024-01-06T03:15:46;88.63;;;49.13;;
77111;SDS011;66064;50.226;14.344;2024-01-06T03:18:12;92.25;;;51.25;;
77111;SDS011;66064;50.226;14.344;2024-01-06T03:20:38;90.97;;;50.63;;
77111;SDS011;66064;50.226;14.344;2024-01-06T03:23:04;86.47;;;48.95;;
77111;SDS011;66064;50.226;14.344;2024-01-06T03:25:30;92.55;;;52.30;;
77111;SDS011;66064;50.226;14.344;2024-01-06T03:27:56;75.50;;;51.47;;
77111;SDS011;66064;50.226;14.344;2024-01-06T03:30:22;85.18;;;47.95;;
77111;SDS011;66064;50.226;14.344;2024-01-06T03:32:48;91.93;;;49.13;;
77111;SDS011;66064;50.226;14.344;2024-01-06T03:35:14;84.88;;;46.35;;
77111;SDS011;66064;50.226;14.344;2024-01-06T03:37:40;85.40;;;48.30;;
77111;SDS011;66064;50.226;14.344;2024-01-06T03:40:08;86.53;;;50.70;;
77111;SDS011;66064;50.226;14.344;2024-01-06T03:42:34;85.35;;;45.03;;
77111;SDS011;66064;50.226;14.344;2024-01-06T03:45:02;82.75;;;44.30;;
77111;SDS011;66064;50.226;14.344;2024-01-06T03:47:29;89.05;;;49.55;;
77111;SDS011;66064;50.226;14.344;2024-01-06T03:49:55;80.70;;;45.25;;
77111;SDS011;66064;50.226;14.344;2024-01-06T03:52:21;73.20;;;45.08;;
77111;SDS011;66064;50.226;14.344;2024-01-06T03:54:48;82.45;;;49.13;;
77111;SDS011;66064;50.226;14.344;2024-01-06T03:57:13;77.88;;;44.08;;
77111;SDS011;66064;50.226;14.344;2024-01-06T03:59:39;66.85;;;42.40;;
77111;SDS011;66064;50.226;14.344;2024-01-06T04:02:07;76.57;;;47.97;;
77111;SDS011;66064;50.226;14.344;2024-01-06T04:04:34;70.47;;;37.83;;
77111;SDS011;66064;50.226;14.344;2024-01-06T04:07:00;79.57;;;48.10;;
77111;SDS011;66064;50.226;14.344;2024-01-06T04:09:27;73.28;;;35.83;;
77111;SDS011;66064;50.226;14.344;2024-01-06T04:11:53;65.38;;;44.83;;
77111;SDS011;66064;50.226;14.344;2024-01-06T04:14:20;69.05;;;36.60;;
77111;SDS011;66064;50.226;14.344;2024-01-06T04:16:45;72.43;;;46.28;;
77111;SDS011;66064;50.226;14.344;2024-01-06T04:19:11;72.75;;;41.63;;
77111;SDS011;66064;50.226;14.344;2024-01-06T04:21:38;74.57;;;45.33;;
77111;SDS011;66064;50.226;14.344;2024-01-06T04:24:04;72.60;;;41.33;;
77111;SDS011;66064;50.226;14.344;2024-01-06T04:26:30;84.63;;;38.67;;
77111;SDS011;66064;50.226;14.344;2024-01-06T04:28:57;71.78;;;45.30;;
77111;SDS011;66064;50.226;14.344;2024-01-06T04:31:22;72.20;;;42.17;;
77111;SDS011;66064;50.226;14.344;2024-01-06T04:33:48;74.22;;;37.45;;
77111;SDS011;66064;50.226;14.344;2024-01-06T04:36:15;69.50;;;41.17;;
77111;SDS011;66064;50.226;14.344;2024-01-06T04:38:42;75.95;;;45.15;;
77111;SDS011;66064;50.226;14.344;2024-01-06T04:41:09;76.90;;;45.05;;
77111;SDS011;66064;50.226;14.344;2024-01-06T04:43:35;78.90;;;41.60;;
77111;SDS011;66064;50.226;14.344;2024-01-06T04:46:02;85.88;;;45.67;;
77111;SDS011;66064;50.226;14.344;2024-01-06T04:48:30;83.50;;;45.17;;
77111;SDS011;66064;50.226;14.344;2024-01-06T04:50:56;80.22;;;42.95;;
77111;SDS011;66064;50.226;14.344;2024-01-06T04:53:23;73.10;;;39.50;;
77111;SDS011;66064;50.226;14.344;2024-01-06T04:55:49;76.90;;;42.53;;
77111;SDS011;66064;50.226;14.344;2024-01-06T04:58:15;74.20;;;40.03;;
77111;SDS011;66064;50.226;14.344;2024-01-06T05:00:42;70.15;;;35.78;;
77111;SDS011;66064;50.226;14.344;2024-01-06T05:03:09;74.13;;;39.70;;
77111;SDS011;66064;50.226;14.344;2024-01-06T05:05:35;66.13;;;38.97;;
77111;SDS011;66064;50.226;14.344;2024-01-06T05:08:01;68.95;;;43.20;;
77111;SDS011;66064;50.226;14.344;2024-01-06T05:10:29;76.65;;;40.25;;
77111;SDS011;66064;50.226;14.344;2024-01-06T05:12:55;77.82;;;47.05;;
77111;SDS011;66064;50.226;14.344;2024-01-06T05:15:21;77.25;;;45.75;;
77111;SDS011;66064;50.226;14.344;2024-01-06T05:17:47;69.18;;;44.50;;
77111;SDS011;66064;50.226;14.344;2024-01-06T05:20:13;77.47;;;43.83;;
77111;SDS011;66064;50.226;14.344;2024-01-06T05:22:40;71.70;;;43.17;;
77111;SDS011;66064;50.226;14.344;2024-01-06T05:25:06;72.53;;;44.40;;
77111;SDS011;66064;50.226;14.344;2024-01-06T05:27:32;76.10;;;43.00;;
77111;SDS011;66064;50.226;14.344;2024-01-06T05:29:58;70.68;;;42.33;;
77111;SDS011;66064;50.226;14.344;2024-01-06T05:32:24;75.45;;;41.60;;
77111;SDS011;66064;50.226;14.344;2024-01-06T05:34:50;73.57;;;41.78;;
77111;SDS011;66064;50.226;14.344;2024-01-06T05:37:17;75.38;;;38.35;;
77111;SDS011;66064;50.226;14.344;2024-01-06T05:39:43;72.60;;;42.92;;
77111;SDS011;66064;50.226;14.344;2024-01-06T05:42:09;66.50;;;41.60;;
77111;SDS011;66064;50.226;14.344;2024-01-06T05:44:41;74.85;;;43.85;;
77111;SDS011;66064;50.226;14.344;2024-01-06T05:47:08;76.10;;;44.90;;
77111;SDS011;66064;50.226;14.344;2024-01-06T05:49:34;74.10;;;42.58;;
77111;SDS011;66064;50.226;14.344;2024-01-06T05:52:00;72.75;;;47.35;;
77111;SDS011;66064;50.226;14.344;2024-01-06T05:54:26;67.00;;;45.00;;
77111;SDS011;66064;50.226;14.344;2024-01-06T05:56:52;62.80;;;45.33;;
77111;SDS011;66064;50.226;14.344;2024-01-06T05:59:18;63.03;;;41.17;;
77111;SDS011;66064;50.226;14.344;2024-01-06T06:01:44;70.25;;;48.85;;
77111;SDS011;66064;50.226;14.344;2024-01-06T06:04:11;70.07;;;42.97;;
77111;SDS011;66064;50.226;14.344;2024-01-06T06:06:37;67.03;;;42.85;;
77111;SDS011;66064;50.226;14.344;2024-01-06T06:09:03;65.28;;;42.28;;
77111;SDS011;66064;50.226;14.344;2024-01-06T06:11:33;69.68;;;41.70;;
77111;SDS011;66064;50.226;14.344;2024-01-06T06:13:59;66.50;;;37.13;;
77111;SDS011;66064;50.226;14.344;2024-01-06T06:16:28;61.78;;;43.22;;
77111;SDS011;66064;50.226;14.344;2024-01-06T06:18:55;70.68;;;44.45;;
77111;SDS011;66064;50.226;14.344;2024-01-06T06:21:21;71.93;;;42.53;;
77111;SDS011;66064;50.226;14.344;2024-01-06T06:23:47;60.30;;;43.13;;
77111;SDS011;66064;50.226;14.344;2024-01-06T06:26:13;72.43;;;44.50;;
77111;SDS011;66064;50.226;14.344;2024-01-06T06:28:39;67.25;;;44.85;;
77111;SDS011;66064;50.226;14.344;2024-01-06T06:31:08;71.53;;;47.15;;
77111;SDS011;66064;50.226;14.344;2024-01-06T06:33:34;66.78;;;44.25;;
77111;SDS011;66064;50.226;14.344;2024-01-06T06:36:00;70.93;;;46.90;;
77111;SDS011;66064;50.226;14.344;2024-01-06T06:38:28;77.60;;;45.08;;
77111;SDS011;66064;50.226;14.344;2024-01-06T06:40:55;81.63;;;47.30;;
77111;SDS011;66064;50.226;14.344;2024-01-06T06:43:22;83.53;;;49.83;;
77111;SDS011;66064;50.226;14.344;2024-01-06T06:45:48;90.88;;;52.95;;
77111;SDS011;66064;50.226;14.344;2024-01-06T06:48:14;92.22;;;53.38;;
77111;SDS011;66064;50.226;14.344;2024-01-06T06:50:40;88.10;;;46.92;;
77111;SDS011;66064;50.226;14.344;2024-01-06T06:53:09;81.90;;;48.03;;
77111;SDS011;66064;50.226;14.344;2024-01-06T06:55:35;82.88;;;48.05;;
77111;SDS011;66064;50.226;14.344;2024-01-06T06:58:03;72.53;;;46.92;;
77111;SDS011;66064;50.226;14.344;2024-01-06T07:00:30;90.00;;;52.47;;
77111;SDS011;66064;50.226;14.344;2024-01-06T07:02:57;78.15;;;48.45;;
77111;SDS011;66064;50.226;14.344;2024-01-06T07:05:23;85.30;;;47.25;;
77111;SDS011;66064;50.226;14.344;2024-01-06T07:07:49;93.13;;;47.00;;
77111;SDS011;66064;50.226;14.344;2024-01-06T07:10:15;76.95;;;44.45;;
77111;SDS011;66064;50.226;14.344;2024-01-06T07:12:42;85.22;;;45.42;;
77111;SDS011;66064;50.226;14.344;2024-01-06T07:15:09;83.78;;;44.47;;
77111;SDS011;66064;50.226;14.344;2024-01-06T07:17:38;82.38;;;49.50;;
77111;SDS011;66064;50.226;14.344;2024-01-06T07:20:05;92.43;;;47.83;;
77111;SDS011;66064;50.226;14.344;2024-01-06T07:22:34;91.55;;;48.03;;
77111;SDS011;66064;50.226;14.344;2024-01-06T07:25:02;90.07;;;46.53;;
77111;SDS011;66064;50.226;14.344;2024-01-06T07:27:29;88.32;;;47.63;;
77111;SDS011;66064;50.226;14.344;2024-01-06T07:29:55;104.38;;;50.53;;
77111;SDS011;66064;50.226;14.344;2024-01-06T07:32:22;92.30;;;50.28;;
77111;SDS011;66064;50.226;14.344;2024-01-06T07:34:49;88.43;;;49.00;;
77111;SDS011;66064;50.226;14.344;2024-01-06T07:37:15;81.13;;;46.40;;
77111;SDS011;66064;50.226;14.344;2024-01-06T07:39:41;85.13;;;50.70;;
77111;SDS011;66064;50.226;14.344;2024-01-06T07:42:08;82.10;;;50.15;;
77111;SDS011;66064;50.226;14.344;2024-01-06T07:44:33;74.88;;;42.63;;
77111;SDS011;66064;50.226;14.344;2024-01-06T07:46:59;67.38;;;37.15;;
77111;SDS011;66064;50.226;14.344;2024-01-06T07:49:27;79.38;;;48.55;;
77111;SDS011;66064;50.226;14.344;2024-01-06T07:51:54;74.22;;;46.88;;
77111;SDS011;66064;50.226;14.344;2024-01-06T07:54:20;73.20;;;49.90;;
77111;SDS011;66064;50.226;14.344;2024-01-06T07:56:46;72.78;;;47.85;;
77111;SDS011;66064;50.226;14.344;2024-01-06T07:59:11;79.65;;;49.75;;
77111;SDS011;66064;50.226;14.344;2024-01-06T08:01:38;72.57;;;42.70;;
77111;SDS011;66064;50.226;14.344;2024-01-06T08:04:04;59.38;;;43.65;;
77111;SDS011;66064;50.226;14.344;2024-01-06T08:06:31;61.78;;;43.60;;
77111;SDS011;66064;50.226;14.344;2024-01-06T08:08:57;59.60;;;35.85;;
77111;SDS011;66064;50.226;14.344;2024-01-06T08:11:23;59.10;;;45.45;;
77111;SDS011;66064;50.226;14.344;2024-01-06T08:13:49;53.05;;;38.80;;
77111;SDS011;66064;50.226;14.344;2024-01-06T08:16:16;59.65;;;42.08;;
77111;SDS011;66064;50.226;14.344;2024-01-06T08:18:42;59.97;;;40.78;;
77111;SDS011;66064;50.226;14.344;2024-01-06T08:21:15;55.42;;;37.72;;
77111;SDS011;66064;50.226;14.344;2024-01-06T08:23:41;66.55;;;42.47;;
77111;SDS011;66064;50.226;14.344;2024-01-06T08:26:07;60.63;;;39.67;;
77111;SDS011;66064;50.226;14.344;2024-01-06T08:28:35;61.90;;;37.50;;
77111;SDS011;66064;50.226;14.344;2024-01-06T08:33:31;62.88;;;40.10;;
77111;SDS011;66064;50.226;14.344;2024-01-06T08:35:57;56.50;;;40.05;;
77111;SDS011;66064;50.226;14.344;2024-01-06T08:38:23;58.55;;;38.58;;
77111;SDS011;66064;50.226;14.344;2024-01-06T08:40:50;63.65;;;41.42;;
77111;SDS011;66064;50.226;14.344;2024-01-06T08:43:17;58.38;;;39.10;;
77111;SDS011;66064;50.226;14.344;2024-01-06T08:45:44;65.10;;;38.35;;
77111;SDS011;66064;50.226;14.344;2024-01-06T08:48:10;52.20;;;39.22;;
77111;SDS011;66064;50.226;14.344;2024-01-06T08:50:38;57.65;;;40.80;;
77111;SDS011;66064;50.226;14.344;2024-01-06T08:53:06;49.38;;;37.08;;
77111;SDS011;66064;50.226;14.344;2024-01-06T08:55:32;61.53;;;34.65;;
77111;SDS011;66064;50.226;14.344;2024-01-06T08:57:58;53.40;;;37.05;;
77111;SDS011;66064;50.226;14.344;2024-01-06T09:00:24;55.63;;;38.05;;
77111;SDS011;66064;50.226;14.344;2024-01-06T09:02:52;59.28;;;38.35;;
77111;SDS011;66064;50.226;14.344;2024-01-06T09:05:19;54.28;;;40.13;;
77111;SDS011;66064;50.226;14.344;2024-01-06T09:07:45;53.67;;;38.30;;
77111;SDS011;66064;50.226;14.344;2024-01-06T09:10:18;49.92;;;38.72;;
77111;SDS011;66064;50.226;14.344;2024-01-06T09:12:45;53.88;;;38.22;;
77111;SDS011;66064;50.226;14.344;2024-01-06T09:15:12;56.17;;;43.70;;
77111;SDS011;66064;50.226;14.344;2024-01-06T09:17:38;57.80;;;42.30;;
77111;SDS011;66064;50.226;14.344;2024-01-06T09:20:05;50.67;;;38.40;;
77111;SDS011;66064;50.226;14.344;2024-01-06T09:22:31;54.40;;;39.80;;
77111;SDS011;66064;50.226;14.344;2024-01-06T09:24:58;50.58;;;38.28;;
77111;SDS011;66064;50.226;14.344;2024-01-06T09:27:25;57.03;;;41.00;;
77111;SDS011;66064;50.226;14.344;2024-01-06T09:29:51;54.33;;;39.92;;
77111;SDS011;66064;50.226;14.344;2024-01-06T09:32:18;51.20;;;33.20;;
77111;SDS011;66064;50.226;14.344;2024-01-06T09:34:44;52.00;;;35.40;;
77111;SDS011;66064;50.226;14.344;2024-01-06T09:37:10;57.88;;;37.92;;
77111;SDS011;66064;50.226;14.344;2024-01-06T09:39:37;56.75;;;37.45;;
77111;SDS011;66064;50.226;14.344;2024-01-06T09:42:04;60.15;;;40.60;;
77111;SDS011;66064;50.226;14.344;2024-01-06T09:44:32;56.05;;;37.08;;
77111;SDS011;66064;50.226;14.344;2024-01-06T09:46:58;53.05;;;40.40;;
77111;SDS011;66064;50.226;14.344;2024-01-06T09:49:26;58.28;;;37.28;;
77111;SDS011;66064;50.226;14.344;2024-01-06T09:51:54;59.17;;;38.88;;
77111;SDS011;66064;50.226;14.344;2024-01-06T09:54:24;54.20;;;34.95;;
77111;SDS011;66064;50.226;14.344;2024-01-06T09:56:53;61.33;;;38.97;;
77111;SDS011;66064;50.226;14.344;2024-01-06T09:59:21;62.60;;;40.10;;
77111;SDS011;66064;50.226;14.344;2024-01-06T10:01:48;59.03;;;38.70;;
77111;SDS011;66064;50.226;14.344;2024-01-06T10:04:15;61.65;;;38.53;;
77111;SDS011;66064;50.226;14.344;2024-01-06T10:06:41;64.45;;;38.97;;
77111;SDS011;66064;50.226;14.344;2024-01-06T10:09:08;59.33;;;38.22;;
77111;SDS011;66064;50.226;14.344;2024-01-06T10:11:35;65.65;;;37.08;;
77111;SDS011;66064;50.226;14.344;2024-01-06T10:14:03;64.63;;;39.05;;
77111;SDS011;66064;50.226;14.344;2024-01-06T10:16:29;63.58;;;41.47;;
77111;SDS011;66064;50.226;14.344;2024-01-06T10:18:56;63.50;;;38.33;;
77111;SDS011;66064;50.226;14.344;2024-01-06T10:21:22;67.07;;;41.70;;
77111;SDS011;66064;50.226;14.344;2024-01-06T10:23:51;75.80;;;43.55;;
77111;SDS011;66064;50.226;14.344;2024-01-06T10:26:19;67.75;;;42.35;;
77111;SDS011;66064;50.226;14.344;2024-01-06T10:28:47;61.80;;;40.17;;
77111;SDS011;66064;50.226;14.344;2024-01-06T10:33:47;62.38;;;42.30;;
77111;SDS011;66064;50.226;14.344;2024-01-06T10:36:14;59.78;;;39.15;;
77111;SDS011;66064;50.226;14.344;2024-01-06T10:38:41;65.00;;;37.40;;
77111;SDS011;66064;50.226;14.344;2024-01-06T10:41:08;62.05;;;38.80;;
77111;SDS011;66064;50.226;14.344;2024-01-06T10:43:38;60.30;;;40.58;;
77111;SDS011;66064;50.226;14.344;2024-01-06T10:46:09;60.38;;;38.63;;
77111;SDS011;66064;50.226;14.344;2024-01-06T10:48:39;55.92;;;39.40;;
77111;SDS011;66064;50.226;14.344;2024-01-06T10:51:11;54.45;;;35.50;;
77111;SDS011;66064;50.226;14.344;2024-01-06T10:53:43;67.18;;;42.35;;
77111;SDS011;66064;50.226;14.344;2024-01-06T10:56:09;61.95;;;40.90;;
77111;SDS011;66064;50.226;14.344;2024-01-06T10:58:48;65.20;;;39.75;;
77111;SDS011;66064;50.226;14.344;2024-01-06T11:01:21;66.38;;;39.67;;
77111;SDS011;66064;50.226;14.344;2024-01-06T11:03:48;59.17;;;36.80;;
77111;SDS011;66064;50.226;14.344;2024-01-06T11:06:15;56.65;;;37.10;;
77111;SDS011;66064;50.226;14.344;2024-01-06T11:09:29;68.07;;;39.95;;
77111;SDS011;66064;50.226;14.344;2024-01-06T11:11:37;63.05;;;34.22;;
77111;SDS011;66064;50.226;14.344;2024-01-06T11:14:24;65.82;;;36.22;;
77111;SDS011;66064;50.226;14.344;2024-01-06T11:16:52;58.58;;;37.53;;
77111;SDS011;66064;50.226;14.344;2024-01-06T11:24:53;55.85;;;33.03;;
77111;SDS011;66064;50.226;14.344;2024-01-06T11:27:27;55.10;;;35.50;;
77111;SDS011;66064;50.226;14.344;2024-01-06T11:29:58;60.70;;;42.20;;
77111;SDS011;66064;50.226;14.344;2024-01-06T11:35:15;58.33;;;36.80;;
77111;SDS011;66064;50.226;14.344;2024-01-06T11:42:55;54.17;;;34.95;;
77111;SDS011;66064;50.226;14.344;2024-01-06T11:45:45;48.92;;;29.20;;
77111;SDS011;66064;50.226;14.344;2024-01-06T11:48:11;52.63;;;31.70;;
77111;SDS011;66064;50.226;14.344;2024-01-06T11:50:38;47.50;;;32.05;;
77111;SDS011;66064;50.226;14.344;2024-01-06T11:53:06;50.95;;;31.10;;
77111;SDS011;66064;50.226;14.344;2024-01-06T11:58:02;49.42;;;31.30;;
77111;SDS011;66064;50.226;14.344;2024-01-06T12:00:29;51.08;;;35.42;;
77111;SDS011;66064;50.226;14.344;2024-01-06T12:02:59;45.92;;;31.05;;
77111;SDS011;66064;50.226;14.344;2024-01-06T12:05:29;48.55;;;32.67;;
77111;SDS011;66064;50.226;14.344;2024-01-06T12:10:27;54.72;;;36.67;;
77111;SDS011;66064;50.226;14.344;2024-01-06T12:15:24;43.47;;;29.92;;
77111;SDS011;66064;50.226;14.344;2024-01-06T12:17:51;46.88;;;29.25;;
77111;SDS011;66064;50.226;14.344;2024-01-06T12:20:18;48.60;;;32.45;;
77111;SDS011;66064;50.226;14.344;2024-01-06T12:22:44;45.20;;;30.08;;
77111;SDS011;66064;50.226;14.344;2024-01-06T12:25:10;46.70;;;32.67;;
77111;SDS011;66064;50.226;14.344;2024-01-06T12:27:41;50.60;;;34.60;;
77111;SDS011;66064;50.226;14.344;2024-01-06T12:30:12;48.83;;;34.50;;
77111;SDS011;66064;50.226;14.344;2024-01-06T12:35:11;41.70;;;29.27;;
77111;SDS011;66064;50.226;14.344;2024-01-06T12:37:38;54.78;;;36.53;;
77111;SDS011;66064;50.226;14.344;2024-01-06T12:40:05;56.88;;;33.90;;
77111;SDS011;66064;50.226;14.344;2024-01-06T12:42:34;53.17;;;38.85;;
77111;SDS011;66064;50.226;14.344;2024-01-06T12:45:00;58.00;;;38.83;;
77111;SDS011;66064;50.226;14.344;2024-01-06T12:47:26;53.85;;;36.53;;
77111;SDS011;66064;50.226;14.344;2024-01-06T12:49:52;53.50;;;36.25;;
77111;SDS011;66064;50.226;14.344;2024-01-06T12:52:18;47.70;;;34.63;;
77111;SDS011;66064;50.226;14.344;2024-01-06T12:54:45;50.80;;;36.92;;
77111;SDS011;66064;50.226;14.344;2024-01-06T12:57:12;50.22;;;29.92;;
77111;SDS011;66064;50.226;14.344;2024-01-06T12:59:39;50.40;;;33.65;;
77111;SDS011;66064;50.226;14.344;2024-01-06T13:02:05;48.83;;;29.65;;
77111;SDS011;66064;50.226;14.344;2024-01-06T13:04:31;51.05;;;35.45;;
77111;SDS011;66064;50.226;14.344;2024-01-06T13:06:57;47.90;;;32.28;;
77111;SDS011;66064;50.226;14.344;2024-01-06T13:09:25;41.30;;;29.75;;
77111;SDS011;66064;50.226;14.344;2024-01-06T13:11:52;45.67;;;33.10;;
77111;SDS011;66064;50.226;14.344;2024-01-06T13:14:25;48.72;;;29.27;;
77111;SDS011;66064;50.226;14.344;2024-01-06T13:16:50;47.10;;;35.30;;
77111;SDS011;66064;50.226;14.344;2024-01-06T13:19:17;46.42;;;27.13;;
77111;SDS011;66064;50.226;14.344;2024-01-06T13:21:45;44.13;;;32.03;;
77111;SDS011;66064;50.226;14.344;2024-01-06T13:24:12;48.80;;;34.70;;
77111;SDS011;66064;50.226;14.344;2024-01-06T13:26:38;50.22;;;30.95;;
77111;SDS011;66064;50.226;14.344;2024-01-06T13:29:05;45.33;;;33.13;;
77111;SDS011;66064;50.226;14.344;2024-01-06T13:31:31;51.90;;;31.38;;
77111;SDS011;66064;50.226;14.344;2024-01-06T13:33:58;48.15;;;26.58;;
77111;SDS011;66064;50.226;14.344;2024-01-06T13:36:24;45.35;;;31.75;;
77111;SDS011;66064;50.226;14.344;2024-01-06T13:38:50;44.15;;;30.48;;
77111;SDS011;66064;50.226;14.344;2024-01-06T13:41:16;48.33;;;31.35;;
77111;SDS011;66064;50.226;14.344;2024-01-06T13:43:42;46.10;;;34.92;;
77111;SDS011;66064;50.226;14.344;2024-01-06T13:46:10;46.78;;;29.80;;
77111;SDS011;66064;50.226;14.344;2024-01-06T13:48:40;46.88;;;33.42;;
77111;SDS011;66064;50.226;14.344;2024-01-06T13:51:06;46.08;;;33.92;;
77111;SDS011;66064;50.226;14.344;2024-01-06T13:53:33;45.05;;;33.25;;
77111;SDS011;66064;50.226;14.344;2024-01-06T13:55:59;48.10;;;33.10;;
77111;SDS011;66064;50.226;14.344;2024-01-06T13:58:26;48.50;;;32.13;;
77111;SDS011;66064;50.226;14.344;2024-01-06T14:00:55;48.25;;;31.70;;
77111;SDS011;66064;50.226;14.344;2024-01-06T14:03:21;44.10;;;31.85;;
77111;SDS011;66064;50.226;14.344;2024-01-06T14:05:48;45.38;;;32.25;;
77111;SDS011;66064;50.226;14.344;2024-01-06T14:08:14;48.42;;;31.92;;
77111;SDS011;66064;50.226;14.344;2024-01-06T14:10:42;43.55;;;32.60;;
77111;SDS011;66064;50.226;14.344;2024-01-06T14:13:08;44.08;;;28.45;;
77111;SDS011;66064;50.226;14.344;2024-01-06T14:15:34;46.47;;;30.88;;
77111;SDS011;66064;50.226;14.344;2024-01-06T14:18:02;42.97;;;28.15;;
77111;SDS011;66064;50.226;14.344;2024-01-06T14:20:29;38.38;;;22.77;;
77111;SDS011;66064;50.226;14.344;2024-01-06T14:22:58;44.88;;;32.08;;
77111;SDS011;66064;50.226;14.344;2024-01-06T14:25:25;45.38;;;32.30;;
77111;SDS011;66064;50.226;14.344;2024-01-06T14:27:52;44.55;;;32.25;;
77111;SDS011;66064;50.226;14.344;2024-01-06T14:30:18;39.72;;;30.25;;
77111;SDS011;66064;50.226;14.344;2024-01-06T14:32:45;44.97;;;30.55;;
77111;SDS011;66064;50.226;14.344;2024-01-06T14:35:11;43.70;;;24.02;;